Achim Manz-Bothe 15000m row

15,000

Meters

1:01:19.4

Time

2:02.6

Pace

955

Calories

127

Heart Rate

Average Watts190
Calories Per Hour934
Stroke Rate29

December 06, 2019 13:24:00

Workout
RowErg

Workout Type
Fixed Distance

Weight Class
Hwt

Verified
Yes

Entered
Concept2 Utility

Splits

Time Meters Pace Watts Cal/Hr Cal S/M
1:01:19.4 15,000 2:02.6 190 934 955 29 127
2:06.6 500 2:06.6 172 881 31 28 118
2:05.9 1,000 2:05.9 175 886 31 29 118
2:05.5 1,500 2:05.5 177 889 31 30 118
2:04.8 2,000 2:04.8 180 894 31 30 124
2:04.4 2,500 2:04.4 182 897 31 30 123
2:04.3 3,000 2:04.3 182 926 32 30 123
2:03.1 3,500 2:03.1 188 935 32 30 127
2:02.9 4,000 2:02.9 189 937 32 30 124
2:02.0 4,500 2:02.0 193 944 32 30 128
2:01.8 5,000 2:01.8 194 945 32 30 128
2:02.5 5,500 2:02.5 190 940 32 30 128
2:02.2 6,000 2:02.2 192 942 32 30 127
2:02.1 6,500 2:02.1 192 943 32 30 129
2:01.8 7,000 2:01.8 194 945 32 30 129
2:01.8 7,500 2:01.8 194 945 32 30 130
2:02.5 8,000 2:02.5 190 940 32 30 130
2:02.3 8,500 2:02.3 191 941 32 30 130
2:01.9 9,000 2:01.9 193 945 32 30 130
2:02.2 9,500 2:02.2 192 942 32 30 130
2:02.4 10,000 2:02.4 191 941 32 30 130
2:02.3 10,500 2:02.3 191 941 32 30 130
2:02.1 11,000 2:02.1 192 943 32 30 130
2:01.8 11,500 2:01.8 194 945 32 30 129
2:01.5 12,000 2:01.5 195 948 32 30 132
2:01.8 12,500 2:01.8 194 945 32 30 132
2:01.4 13,000 2:01.4 196 948 32 30 131
2:01.2 13,500 2:01.2 197 950 32 30 129
2:01.3 14,000 2:01.3 196 949 32 30 132
2:01.5 14,500 2:01.5 195 948 32 30 134
2:01.5 15,000 2:01.5 195 948 32 30 133